Hovedside
METAR-TAF:

METAR-TAF

Lufthavner :

Stockholm-Arlanda, Sverige

Arlanda lufthavn

breddegrad: 59-39N, lengdegrad: 017-57E, høyde over havet: 38 m

Gjeldene værobservasjon

Denne rapporten ble laget for 14 minutter siden, klokken 07:20 UTC
Vind 10 kt fra Vest
Temperatur 10°C
Luftfuktighet 66%
Trykk 1008 hPa
Sikt 10 km eller mer
ingen skyer under 1500 m og ingen bygeskyer

METAR: ESSA 210720Z 27010KT CAVOK 10/04 Q1008 NOSIG

Tid: 09:34 (07:34 UTC)

Varsel

Denne rapporten ble laget for 2 timer og 4 minutter siden, klokken 05:30 UTC
Varsel gyldig fra 21. klokken 06 UTC til 22. klokken 06 UTC
Vind 8 kt fra Vest
Sikt 10 km eller mer
ingen skyer under 1500 m og ingen bygeskyer

TAF: ESSA 210530Z 2106/2206 28008KT CAVOK

Værobservasjoner og værvarsel for over 4000 flyplasser (METAR- og TAF-rapporter).

Tilgjengelige stasjoner er representert av de røde og gule prikkene på kartet.

Hold musepekeren over prikken for å se navnet på stasjonen.

Klikk så for å se værobservasjoner og -varsler.

For å forandre kartet kan du klikke på den grønne knappen med svart kryss for å zoome inn, på den grønne knappen med strek for å zoome ut, eller på de grønne pilene for å se tilstøtende kart.


METAR-TAF: